.
WxDataArchive / Data Records for 2011-12-04
2011-12-03 December 2011 2011-12-05

Data Records for Sunday, 04 December 2011

Time	Temp	Chill	HIndex	Humid	Dewpt	 Wind 	HiWind	WindDir	Rain 	Barom 
-----	----	-----	------	-----	-----	------	------	-------	-----	----- 
00:00	46.2	46.2	46.2	66	35.5	2	6	90	0.00	30.110 
00:05	46.4	46.4	46.4	65	35.3	2	6	112	0.00	30.110 
00:10	46.5	46.5	46.5	65	35.4	2	4	90	0.00	30.110 
00:15	46.8	46.8	46.8	64	35.3	2	5	135	0.00	30.097 
00:20	47.0	47.0	47.0	63	35.1	2	7	112	0.00	30.097 
00:25	47.1	47.1	47.1	62	34.8	3	7	90	0.00	30.097 
00:30	47.3	47.3	47.3	62	34.9	2	9	112	0.00	30.095 
00:35	47.3	47.3	47.3	62	34.9	2	5	90	0.00	30.095 
00:40	47.3	47.3	47.3	61	34.5	2	7	90	0.00	30.095 
00:45	47.3	47.3	47.3	61	34.5	2	5	90	0.00	30.095 
00:50	47.3	47.3	47.3	62	34.9	1	4	0	0.00	30.095 
00:55	47.1	47.1	47.1	62	34.8	2	5	90	0.00	30.095 
01:00	47.1	47.1	47.1	62	34.8	1	4	90	0.00	30.083 
01:05	47.0	47.0	47.0	61	34.3	1	4	90	0.00	30.083 
01:10	47.1	47.1	47.1	61	34.4	2	4	90	0.00	30.083 
01:15	47.1	47.1	47.1	61	34.4	1	4	112	0.00	30.075 
01:20	47.0	47.0	47.0	62	34.7	1	3	135	0.00	30.075 
01:25	47.0	47.0	47.0	61	34.3	1	3	112	0.00	30.075 
01:30	47.0	47.0	47.0	61	34.3	1	4	90	0.00	30.064 
01:35	47.1	47.1	47.1	60	33.9	2	5	90	0.00	30.064 
01:40	47.3	47.3	47.3	60	34.1	1	4	90	0.00	30.064 
01:45	47.6	47.6	47.6	59	34.0	1	4	112	0.00	30.064 
01:50	47.7	47.7	47.7	58	33.7	2	6	112	0.00	30.064 
01:55	48.0	48.0	48.0	57	33.5	1	3	0	0.00	30.064 
02:00	48.5	48.5	48.5	56	33.5	2	5	90	0.00	30.061 
02:05	48.8	48.8	48.8	55	33.4	1	4	135	0.00	30.061 
02:10	49.2	49.2	49.2	54	33.3	1	4	270	0.00	30.061 
02:15	49.2	49.2	49.2	58	35.1	1	5	292	0.01	30.056 
02:20	49.1	49.1	49.1	61	36.2	2	5	248	0.01	30.056 
02:25	48.5	48.5	48.5	64	36.9	2	5	248	0.00	30.056 
02:30	48.0	48.0	48.0	66	37.2	1	5	270	0.00	30.056 
02:35	47.6	47.6	47.6	65	36.4	1	5	270	0.00	30.056 
02:40	47.4	47.4	47.4	66	36.6	0	3	90	0.00	30.056 
02:45	47.4	47.4	47.4	66	36.6	0	3	90	0.00	30.048 
02:50	47.4	47.4	47.4	64	35.8	1	4	112	0.00	30.048 
02:55	47.6	47.6	47.6	63	35.6	1	3	225	0.00	30.048 
03:00	47.9	47.9	47.9	62	35.5	1	3	248	0.00	30.045 
03:05	48.2	48.2	48.2	61	35.4	1	5	90	0.00	30.045 
03:10	48.2	48.2	48.2	62	35.8	1	3	22	0.00	30.045 
03:15	48.5	48.5	48.5	61	35.7	2	10	45	0.00	30.044 
03:20	48.6	48.6	48.6	59	34.9	2	7	90	0.00	30.044 
03:25	48.6	48.6	48.6	61	35.8	1	4	90	0.00	30.044 
03:30	48.6	48.6	48.6	61	35.8	2	5	90	0.00	30.036 
03:35	48.5	48.5	48.5	62	36.1	1	4	90	0.00	30.036 
03:40	48.2	48.2	48.2	63	36.2	2	6	270	0.01	30.036 
03:45	48.0	48.0	48.0	64	36.4	1	3	45	0.00	30.037 
03:50	47.9	47.9	47.9	64	36.3	1	5	90	0.00	30.037 
03:55	48.0	48.0	48.0	63	36.0	2	5	292	0.00	30.037 
04:00	48.0	48.0	48.0	65	36.8	1	5	90	0.00	30.042 
04:05	47.9	47.9	47.9	67	37.5	1	4	248	0.00	30.042 
04:10	47.4	47.4	47.4	68	37.4	1	3	22	0.00	30.042 
04:15	47.3	47.3	47.3	68	37.3	1	3	248	0.00	30.036 
04:20	47.3	47.3	47.3	69	37.7	1	6	248	0.01	30.036 
04:25	47.1	47.1	47.1	70	37.8	1	7	248	0.00	30.036 
04:30	47.0	47.0	47.0	72	38.4	1	5	248	0.00	30.031 
04:35	46.7	46.7	46.7	73	38.5	1	5	248	0.01	30.031 
04:40	46.5	46.5	46.5	73	38.3	1	4	90	0.00	30.031 
04:45	46.4	46.4	46.4	74	38.6	1	3	270	0.00	30.033 
04:50	46.4	46.4	46.4	73	38.2	1	5	270	0.00	30.033 
04:55	46.5	46.5	46.5	73	38.3	1	3	270	0.00	30.033 
05:00	46.8	46.8	46.8	73	38.6	1	3	270	0.00	30.040 
05:05	47.0	47.0	47.0	72	38.4	1	6	248	0.01	30.040 
05:10	47.0	47.0	47.0	73	38.8	1	5	248	0.00	30.040 
05:15	47.1	47.1	47.1	73	38.9	2	6	248	0.00	30.051 
05:20	47.3	47.3	47.3	75	39.8	3	12	248	0.00	30.051 
05:25	47.1	47.1	47.1	77	40.3	3	10	248	0.00	30.051 
05:30	46.8	46.8	46.8	78	40.3	3	6	248	0.01	30.048 
05:35	46.7	46.7	46.7	80	40.9	2	7	270	0.00	30.048 
05:40	46.5	46.5	46.5	81	41.0	2	6	248	0.00	30.048 
05:45	46.4	46.4	46.4	82	41.2	1	5	248	0.00	30.057 
05:50	46.1	46.1	46.1	83	41.2	2	5	248	0.00	30.057 
05:55	46.0	46.0	46.0	84	41.4	2	9	248	0.01	30.057 
06:00	45.8	45.8	45.8	85	41.6	1	5	248	0.00	30.053 
06:05	45.7	45.7	45.7	85	41.5	1	5	248	0.00	30.053 
06:10	45.5	45.5	45.5	86	41.6	1	4	225	0.01	30.053 
06:15	45.5	45.5	45.5	86	41.6	2	7	225	0.01	30.061 
06:20	45.5	45.5	45.5	87	41.9	1	4	248	0.00	30.061 
06:25	45.5	45.5	45.5	87	41.9	2	5	248	0.00	30.061 
06:30	45.7	45.7	45.7	86	41.8	2	7	248	0.00	30.062 
06:35	45.8	45.8	45.8	86	41.9	2	5	248	0.00	30.062 
06:40	46.1	46.1	46.1	86	42.1	2	9	270	0.00	30.062 
06:45	46.4	46.4	46.4	85	42.1	3	9	248	0.00	30.060 
06:50	46.7	46.7	46.7	85	42.4	3	10	248	0.00	30.060 
06:55	46.8	46.8	46.8	85	42.5	2	7	248	0.00	30.060 
07:00	46.8	46.8	46.8	85	42.5	2	7	270	0.01	30.050 
07:05	46.8	46.8	46.8	84	42.2	2	6	248	0.00	30.050 
07:10	46.8	46.8	46.8	84	42.2	2	5	248	0.00	30.050 
07:15	47.0	47.0	47.0	84	42.4	2	9	248	0.00	30.052 
07:20	47.0	47.0	47.0	83	42.1	1	8	248	0.00	30.052 
07:25	47.1	47.1	47.1	82	41.9	1	4	270	0.00	30.052 
07:30	47.3	47.3	47.3	82	42.1	2	10	270	0.00	30.048 
07:35	47.4	47.4	47.4	82	42.2	2	5	270	0.00	30.048 
07:40	47.6	47.6	47.6	82	42.4	3	9	248	0.00	30.048 
07:45	47.9	47.9	47.9	82	42.7	3	10	248	0.00	30.053 
07:50	47.9	47.9	47.9	83	43.0	2	7	248	0.00	30.053 
07:55	48.0	48.0	48.0	83	43.1	3	11	248	0.00	30.053 
08:00	48.2	48.2	48.2	83	43.3	2	7	248	0.00	30.058 
08:05	48.0	48.0	48.0	83	43.1	2	6	248	0.00	30.058 
08:10	47.9	47.9	47.9	84	43.3	3	9	338	0.00	30.058 
08:15	47.9	47.9	47.9	84	43.3	3	9	90	0.00	30.042 
08:20	47.9	47.9	47.9	85	43.6	2	7	68	0.00	30.042 
08:25	47.7	47.7	47.7	85	43.4	2	6	90	0.00	30.042 
08:30	47.7	47.7	47.7	85	43.4	2	6	90	0.00	30.042 
08:35	47.7	47.7	47.7	85	43.4	2	10	90	0.00	30.042 
08:40	47.9	47.9	47.9	85	43.6	2	5	248	0.00	30.042 
08:45	47.9	47.9	47.9	85	43.6	2	7	225	0.00	30.047 
08:50	48.0	48.0	48.0	85	43.7	3	10	270	0.00	30.047 
08:55	48.2	48.2	48.2	85	43.9	3	8	248	0.00	30.047 
09:00	48.3	48.3	48.3	84	43.7	2	12	248	0.00	30.059 
09:05	48.3	48.3	48.3	84	43.7	2	7	270	0.00	30.059 
09:10	48.3	48.3	48.3	84	43.7	3	10	248	0.00	30.059 
09:15	48.5	48.5	48.5	84	43.9	3	9	248	0.00	30.057 
09:20	48.3	48.3	48.3	85	44.0	2	9	248	0.01	30.057 
09:25	48.2	48.2	48.2	86	44.2	2	10	45	0.00	30.057 
09:30	48.2	46.8	48.2	86	44.2	4	9	90	0.01	30.040 
09:35	48.0	48.0	48.0	87	44.3	3	7	90	0.01	30.040 
09:40	47.9	47.9	47.9	87	44.2	2	7	45	0.00	30.040 
09:45	47.9	47.9	47.9	88	44.5	3	9	248	0.01	30.058 
09:50	47.9	47.9	47.9	88	44.5	2	7	225	0.00	30.058 
09:55	47.9	47.9	47.9	88	44.5	2	5	90	0.00	30.058 
10:00	48.0	48.0	48.0	88	44.6	2	5	90	0.00	30.038 
10:05	48.2	48.2	48.2	89	45.1	2	5	45	0.00	30.038 
10:10	48.3	48.3	48.3	89	45.2	2	9	248	0.00	30.038 
10:15	48.5	48.5	48.5	88	45.1	2	10	68	0.00	30.038 
10:20	48.8	48.8	48.8	88	45.4	2	15	248	0.00	30.038 
10:25	49.1	49.1	49.1	88	45.7	2	10	90	0.00	30.038 
10:30	49.5	49.5	49.5	88	46.1	2	6	270	0.00	30.054 
10:35	49.6	49.6	49.6	87	45.9	2	7	270	0.00	30.054 
10:40	49.8	49.8	49.8	86	45.8	2	7	292	0.00	30.054 
10:45	49.9	49.9	49.9	86	45.9	2	6	248	0.00	30.059 
10:50	50.1	50.1	50.1	84	45.5	3	9	270	0.00	30.059 
10:55	50.1	50.1	50.1	84	45.5	2	9	248	0.00	30.059 
11:00	50.2	50.2	50.2	84	45.6	3	11	248	0.00	30.075 
11:05	50.5	50.5	50.5	82	45.2	5	9	248	0.00	30.075 
11:10	50.7	50.7	50.7	82	45.4	3	9	248	0.00	30.075 
11:15	50.7	50.7	50.7	82	45.4	3	7	248	0.00	30.086 
11:20	50.8	50.8	50.8	81	45.2	2	6	225	0.00	30.086 
11:25	50.8	50.8	50.8	81	45.2	4	11	248	0.00	30.086 
11:30	50.8	50.8	50.8	81	45.2	2	5	248	0.00	30.075 
11:35	51.0	51.0	51.0	81	45.4	3	14	248	0.00	30.075 
11:40	51.0	51.0	51.0	81	45.4	3	7	248	0.00	30.075 
11:45	51.1	51.1	51.1	81	45.5	3	12	248	0.00	30.070 
11:50	51.1	51.1	51.1	81	45.5	2	10	248	0.00	30.070 
11:55	51.3	51.3	51.3	81	45.7	4	11	248	0.00	30.070 
12:00	51.3	51.3	51.3	81	45.7	2	9	248	0.00	30.071 
12:05	51.4	51.4	51.4	81	45.8	3	10	248	0.00	30.071 
12:10	51.4	51.4	51.4	81	45.8	3	7	248	0.00	30.071 
12:15	51.4	51.4	51.4	81	45.8	2	10	270	0.00	30.065 
12:20	51.6	51.6	51.6	81	46.0	3	14	248	0.00	30.065 
12:25	51.7	51.7	51.7	81	46.1	3	7	248	0.00	30.065 
12:30	51.7	51.7	51.7	81	46.1	3	10	248	0.00	30.058 
12:35	51.7	51.7	51.7	81	46.1	1	4	248	0.00	30.058 
12:40	51.6	51.6	51.6	81	46.0	3	7	270	0.00	30.058 
12:45	51.6	51.6	51.6	81	46.0	3	11	248	0.00	30.056 
12:50	51.6	51.6	51.6	81	46.0	3	11	248	0.00	30.056 
12:55	51.6	51.6	51.6	81	46.0	2	9	248	0.00	30.056 
13:00	51.4	51.4	51.4	82	46.1	2	7	248	0.00	30.058 
13:05	51.4	51.4	51.4	82	46.1	2	7	248	0.00	30.058 
13:10	51.3	51.3	51.3	82	46.0	3	10	248	0.00	30.058 
13:15	51.3	51.3	51.3	83	46.3	3	10	248	0.00	30.058 
13:20	51.1	51.1	51.1	83	46.1	2	7	248	0.00	30.058 
13:25	51.1	51.1	51.1	83	46.1	2	10	270	0.00	30.058 
13:30	51.1	51.1	51.1	84	46.4	3	10	248	0.00	30.057 
13:35	51.3	51.3	51.3	84	46.6	2	5	248	0.00	30.057 
13:40	51.3	51.3	51.3	84	46.6	3	7	248	0.00	30.057 
13:45	51.1	51.1	51.1	84	46.4	2	5	248	0.00	30.068 
13:50	51.1	51.1	51.1	84	46.4	2	5	248	0.00	30.068 
13:55	51.1	51.1	51.1	84	46.4	3	6	248	0.00	30.068 
14:00	51.1	51.1	51.1	84	46.4	3	5	248	0.00	30.065 
14:05	51.1	51.1	51.1	84	46.4	2	5	248	0.00	30.065 
14:10	51.1	51.1	51.1	84	46.4	2	5	248	0.00	30.065 
14:15	51.1	51.1	51.1	84	46.4	3	7	248	0.00	30.066 
14:20	51.1	51.1	51.1	84	46.4	2	6	248	0.00	30.066 
14:25	51.1	51.1	51.1	84	46.4	3	7	248	0.00	30.066 
14:30	51.1	51.1	51.1	85	46.7	2	6	225	0.00	30.058 
14:35	51.0	51.0	51.0	85	46.7	2	6	248	0.00	30.058 
14:40	51.0	51.0	51.0	85	46.7	3	9	248	0.00	30.058 
14:45	50.8	50.8	50.8	85	46.5	2	5	248	0.00	30.066 
14:50	50.8	50.8	50.8	86	46.8	3	7	248	0.00	30.066 
14:55	50.8	50.8	50.8	86	46.8	2	8	248	0.00	30.066 
15:00	50.7	50.7	50.7	86	46.7	1	4	225	0.00	30.058 
15:05	50.5	50.5	50.5	87	46.8	2	6	270	0.01	30.058 
15:10	50.4	50.4	50.4	87	46.7	2	6	248	0.00	30.058 
15:15	50.2	50.2	50.2	88	46.8	2	19	68	0.00	30.045 
15:20	50.1	50.1	50.1	89	47.0	1	6	248	0.00	30.045 
15:25	49.9	49.9	49.9	89	46.8	1	5	45	0.01	30.045 
15:30	49.8	49.8	49.8	90	47.0	1	5	248	0.00	30.042 
15:35	49.6	49.6	49.6	90	46.8	2	6	270	0.00	30.042 
15:40	49.6	49.6	49.6	91	47.1	2	6	248	0.00	30.042 
15:45	49.5	49.5	49.5	91	47.0	2	6	248	0.00	30.070 
15:50	49.5	49.5	49.5	91	47.0	2	6	248	0.00	30.070 
15:55	49.4	49.4	49.4	91	46.9	2	6	248	0.00	30.070 
16:00	49.4	49.4	49.4	92	47.2	1	5	248	0.00	30.074 
16:05	49.4	49.4	49.4	92	47.2	2	6	248	0.00	30.074 
16:10	49.4	49.4	49.4	92	47.2	2	7	248	0.00	30.074 
16:15	49.4	49.4	49.4	92	47.2	2	5	248	0.00	30.081 
16:20	49.4	49.4	49.4	92	47.2	1	5	248	0.01	30.081 
16:25	49.4	49.4	49.4	92	47.2	1	4	248	0.00	30.081 
16:30	49.2	49.2	49.2	92	47.0	1	4	248	0.00	30.086 
16:35	49.2	49.2	49.2	92	47.0	1	5	248	0.01	30.086 
16:40	49.2	49.2	49.2	92	47.0	1	4	225	0.00	30.086 
16:45	49.2	49.2	49.2	92	47.0	1	3	270	0.01	30.078 
16:50	49.1	49.1	49.1	92	46.9	1	3	270	0.02	30.078 
16:55	49.1	49.1	49.1	93	47.2	1	3	225	0.01	30.078 
17:00	49.1	49.1	49.1	93	47.2	1	5	248	0.01	30.086 
17:05	48.9	48.9	48.9	93	47.0	1	5	225	0.00	30.086 
17:10	48.9	48.9	48.9	93	47.0	1	3	270	0.01	30.086 
17:15	48.9	48.9	48.9	93	47.0	1	3	45	0.00	30.090 
17:20	48.9	48.9	48.9	93	47.0	1	4	248	0.01	30.090 
17:25	48.9	48.9	48.9	93	47.0	1	3	248	0.00	30.090 
17:30	48.8	48.8	48.8	94	47.1	1	3	248	0.00	30.089 
17:35	48.8	48.8	48.8	94	47.1	1	3	248	0.00	30.089 
17:40	48.8	48.8	48.8	94	47.1	1	5	248	0.01	30.089 
17:45	48.8	48.8	48.8	94	47.1	1	5	68	0.00	30.095 
17:50	48.8	48.8	48.8	94	47.1	1	4	68	0.00	30.095 
17:55	48.8	48.8	48.8	94	47.1	1	5	202	0.00	30.095 
18:00	48.8	48.8	48.8	94	47.1	0	3	202	0.00	30.105 
18:05	48.9	48.9	48.9	94	47.2	2	5	248	0.00	30.105 
18:10	48.9	48.9	48.9	94	47.2	2	6	248	0.00	30.105 
18:15	48.5	48.5	48.5	94	46.9	3	5	270	0.00	30.135 
18:20	47.7	47.7	47.7	93	45.8	2	5	248	0.00	30.135 
18:25	47.3	47.3	47.3	93	45.4	2	4	248	0.00	30.135 
18:30	46.8	46.8	46.8	93	44.9	2	4	248	0.01	30.151 
18:35	46.4	46.4	46.4	93	44.5	2	4	248	0.00	30.151 
18:40	46.1	46.1	46.1	93	44.2	1	3	248	0.00	30.151 
18:45	45.8	45.8	45.8	94	44.2	2	4	248	0.00	30.150 
18:50	45.5	45.5	45.5	94	43.9	2	4	248	0.00	30.150 
18:55	45.4	45.4	45.4	94	43.8	1	3	248	0.00	30.150 
19:00	45.2	45.2	45.2	94	43.6	1	3	248	0.00	30.149 
19:05	45.1	45.1	45.1	94	43.5	1	4	248	0.00	30.149 
19:10	44.9	44.9	44.9	94	43.3	1	2	248	0.00	30.149 
19:15	44.8	44.8	44.8	94	43.2	0	2	248	0.00	30.149 
19:20	44.6	44.6	44.6	94	43.0	0	2	248	0.00	30.149 
19:25	44.6	44.6	44.6	94	43.0	0	2	248	0.00	30.149 
19:30	44.6	44.6	44.6	94	43.0	0	1	248	0.00	30.164 
19:35	44.6	44.6	44.6	94	43.0	0	2	248	0.00	30.164 
19:40	44.6	44.6	44.6	94	43.0	0	1	248	0.00	30.164 
19:45	44.6	44.6	44.6	94	43.0	1	2	248	0.00	30.171 
19:50	44.5	44.5	44.5	94	42.9	0	3	248	0.00	30.171 
19:55	44.5	44.5	44.5	94	42.9	0	2	248	0.00	30.171 
20:00	44.5	44.5	44.5	94	42.9	0	2	248	0.00	30.168 
20:05	44.3	44.3	44.3	94	42.7	0	2	248	0.00	30.168 
20:10	44.2	44.2	44.2	94	42.6	0	2	248	0.00	30.168 
20:15	44.2	44.2	44.2	94	42.6	0	2	248	0.00	30.168 
20:20	44.2	44.2	44.2	94	42.6	0	1	248	0.00	30.168 
20:25	44.2	44.2	44.2	94	42.6	0	1	248	0.00	30.168 
20:30	44.2	44.2	44.2	94	42.6	0	0	---	0.00	30.162 
20:35	44.2	44.2	44.2	94	42.6	0	0	---	0.00	30.162 
20:40	44.1	44.1	44.1	94	42.5	0	1	248	0.00	30.162 
20:45	44.1	44.1	44.1	94	42.5	0	0	---	0.00	30.170 
20:50	44.1	44.1	44.1	94	42.5	0	1	248	0.00	30.170 
20:55	43.9	43.9	43.9	94	42.3	0	0	---	0.00	30.170 
21:00	43.9	43.9	43.9	94	42.3	0	1	248	0.00	30.185 
21:05	43.9	43.9	43.9	94	42.3	0	1	248	0.00	30.185 
21:10	43.9	43.9	43.9	94	42.3	0	1	248	0.00	30.185 
21:15	43.9	43.9	43.9	95	42.6	0	1	248	0.00	30.177 
21:20	43.8	43.8	43.8	94	42.2	0	1	248	0.00	30.177 
21:25	43.8	43.8	43.8	95	42.5	0	1	248	0.00	30.177 
21:30	43.8	43.8	43.8	94	42.2	0	1	248	0.00	30.173 
21:35	43.6	43.6	43.6	94	42.0	0	1	248	0.00	30.173 
21:40	43.3	43.3	43.3	94	41.7	0	2	248	0.00	30.173 
21:45	43.2	43.2	43.2	94	41.6	0	2	248	0.00	30.176 
21:50	43.1	43.1	43.1	94	41.5	0	1	248	0.01	30.176 
21:55	43.1	43.1	43.1	94	41.5	0	1	248	0.00	30.176 
22:00	42.9	42.9	42.9	94	41.3	0	2	248	0.00	30.184 
22:05	42.8	42.8	42.8	94	41.2	0	1	248	0.00	30.184 
22:10	42.8	42.8	42.8	94	41.2	0	1	248	0.00	30.184 
22:15	42.8	42.8	42.8	94	41.2	0	2	248	0.00	30.180 
22:20	42.6	42.6	42.6	94	41.0	0	1	248	0.00	30.180 
22:25	42.6	42.6	42.6	94	41.0	0	1	248	0.00	30.180 
22:30	42.6	42.6	42.6	94	41.0	0	1	248	0.00	30.183 
22:35	42.6	42.6	42.6	94	41.0	0	1	248	0.00	30.183 
22:40	42.6	42.6	42.6	95	41.3	0	2	248	0.01	30.183 
22:45	42.3	42.3	42.3	94	40.7	0	2	248	0.00	30.196 
22:50	42.1	42.1	42.1	94	40.5	0	2	248	0.00	30.196 
22:55	41.9	41.9	41.9	94	40.3	0	2	248	0.00	30.196 
23:00	41.8	41.8	41.8	94	40.2	0	2	248	0.00	30.200 
23:05	41.6	41.6	41.6	94	40.0	0	2	248	0.00	30.200 
23:10	41.5	41.5	41.5	95	40.2	0	2	248	0.00	30.200 
23:15	41.5	41.5	41.5	95	40.2	0	1	248	0.00	30.196 
23:20	41.5	41.5	41.5	95	40.2	0	2	248	0.00	30.196 
23:25	41.3	41.3	41.3	95	40.0	0	2	248	0.00	30.196 
23:30	41.3	41.3	41.3	95	40.0	0	3	248	0.01	30.200 
23:35	41.3	41.3	41.3	95	40.0	0	1	248	0.00	30.200 
23:40	41.3	41.3	41.3	95	40.0	0	1	248	0.00	30.200 
23:45	41.3	41.3	41.3	95	40.0	0	1	248	0.00	30.196 
23:50	41.3	41.3	41.3	95	40.0	0	0	---	0.00	30.196 
23:55	41.3	41.3	41.3	95	40.0	0	1	248	0.00	30.196 

CoCoRaHS
IN-AL-39
A2 Web Hosting
Creative Commons License
GoDaddy
search engine by freefind advanced

loaded 2018-11-21 01:09:01 • last modified 2010-11-18 10:43:29
Privacy PolicyDisclaimer
• wx.awcolley.com is powered by PmWiki v.2002016 •
• all content (unless otherwise noted) © 2018 A W Colley